sensor_id;sensor_type;location;lat;lon;timestamp;P1;durP1;ratioP1;P2;durP2;ratioP2
29730;SDS011;16639;51.488;0.152;2023-09-30T00:00:14;13.25;;;3.15;;
29730;SDS011;16639;51.488;0.152;2023-09-30T00:02:42;13.07;;;3.30;;
29730;SDS011;16639;51.488;0.152;2023-09-30T00:05:10;16.33;;;3.38;;
29730;SDS011;16639;51.488;0.152;2023-09-30T00:07:37;15.43;;;4.45;;
29730;SDS011;16639;51.488;0.152;2023-09-30T00:10:05;8.27;;;3.28;;
29730;SDS011;16639;51.488;0.152;2023-09-30T00:12:33;12.60;;;3.35;;
29730;SDS011;16639;51.488;0.152;2023-09-30T00:15:00;14.55;;;3.50;;
29730;SDS011;16639;51.488;0.152;2023-09-30T00:17:28;13.32;;;4.05;;
29730;SDS011;16639;51.488;0.152;2023-09-30T00:19:56;13.82;;;4.32;;
29730;SDS011;16639;51.488;0.152;2023-09-30T00:26:08;13.65;;;3.17;;
29730;SDS011;16639;51.488;0.152;2023-09-30T00:29:05;12.75;;;4.03;;
29730;SDS011;16639;51.488;0.152;2023-09-30T00:31:38;11.55;;;3.45;;
29730;SDS011;16639;51.488;0.152;2023-09-30T00:34:33;14.85;;;4.32;;
29730;SDS011;16639;51.488;0.152;2023-09-30T00:37:01;14.35;;;3.28;;
29730;SDS011;16639;51.488;0.152;2023-09-30T00:39:29;9.45;;;3.30;;
29730;SDS011;16639;51.488;0.152;2023-09-30T00:41:58;14.70;;;3.92;;
29730;SDS011;16639;51.488;0.152;2023-09-30T00:44:26;17.25;;;4.85;;
29730;SDS011;16639;51.488;0.152;2023-09-30T00:46:54;12.13;;;3.35;;
29730;SDS011;16639;51.488;0.152;2023-09-30T00:49:23;11.30;;;2.83;;
29730;SDS011;16639;51.488;0.152;2023-09-30T00:51:51;12.90;;;2.92;;
29730;SDS011;16639;51.488;0.152;2023-09-30T00:54:21;14.93;;;3.95;;
29730;SDS011;16639;51.488;0.152;2023-09-30T00:56:52;14.02;;;4.03;;
29730;SDS011;16639;51.488;0.152;2023-09-30T00:59:22;12.23;;;3.70;;
29730;SDS011;16639;51.488;0.152;2023-09-30T01:01:53;9.13;;;3.03;;
29730;SDS011;16639;51.488;0.152;2023-09-30T01:04:24;16.33;;;3.50;;
29730;SDS011;16639;51.488;0.152;2023-09-30T01:06:53;16.73;;;3.35;;
29730;SDS011;16639;51.488;0.152;2023-09-30T01:09:21;13.77;;;3.78;;
29730;SDS011;16639;51.488;0.152;2023-09-30T01:11:48;6.10;;;2.63;;
29730;SDS011;16639;51.488;0.152;2023-09-30T01:14:25;11.55;;;3.78;;
29730;SDS011;16639;51.488;0.152;2023-09-30T01:17:05;13.88;;;2.95;;
29730;SDS011;16639;51.488;0.152;2023-09-30T01:19:35;11.00;;;3.33;;
29730;SDS011;16639;51.488;0.152;2023-09-30T01:22:03;16.08;;;2.95;;
29730;SDS011;16639;51.488;0.152;2023-09-30T01:24:31;8.52;;;2.72;;
29730;SDS011;16639;51.488;0.152;2023-09-30T01:27:09;9.73;;;3.17;;
29730;SDS011;16639;51.488;0.152;2023-09-30T01:29:37;13.05;;;3.40;;
29730;SDS011;16639;51.488;0.152;2023-09-30T01:32:05;13.10;;;3.13;;
29730;SDS011;16639;51.488;0.152;2023-09-30T01:34:36;15.73;;;3.28;;
29730;SDS011;16639;51.488;0.152;2023-09-30T01:37:05;16.08;;;3.58;;
29730;SDS011;16639;51.488;0.152;2023-09-30T01:39:33;13.25;;;4.00;;
29730;SDS011;16639;51.488;0.152;2023-09-30T01:42:00;9.48;;;3.47;;
29730;SDS011;16639;51.488;0.152;2023-09-30T01:44:28;19.77;;;3.45;;
29730;SDS011;16639;51.488;0.152;2023-09-30T01:46:56;18.90;;;3.25;;
29730;SDS011;16639;51.488;0.152;2023-09-30T01:49:23;18.15;;;3.78;;
29730;SDS011;16639;51.488;0.152;2023-09-30T01:51:53;10.25;;;3.67;;
29730;SDS011;16639;51.488;0.152;2023-09-30T01:54:20;12.90;;;3.20;;
29730;SDS011;16639;51.488;0.152;2023-09-30T01:56:48;12.15;;;2.85;;
29730;SDS011;16639;51.488;0.152;2023-09-30T01:59:16;12.80;;;3.70;;
29730;SDS011;16639;51.488;0.152;2023-09-30T02:01:44;16.55;;;3.53;;
29730;SDS011;16639;51.488;0.152;2023-09-30T02:04:13;16.88;;;3.22;;
29730;SDS011;16639;51.488;0.152;2023-09-30T02:06:44;16.13;;;3.53;;
29730;SDS011;16639;51.488;0.152;2023-09-30T02:09:11;9.77;;;3.13;;
29730;SDS011;16639;51.488;0.152;2023-09-30T02:11:39;11.35;;;3.22;;
29730;SDS011;16639;51.488;0.152;2023-09-30T02:14:31;12.70;;;3.25;;
29730;SDS011;16639;51.488;0.152;2023-09-30T02:16:58;15.50;;;4.10;;
29730;SDS011;16639;51.488;0.152;2023-09-30T02:19:26;12.45;;;3.17;;
29730;SDS011;16639;51.488;0.152;2023-09-30T02:21:54;11.27;;;3.20;;
29730;SDS011;16639;51.488;0.152;2023-09-30T02:24:21;10.73;;;3.42;;
29730;SDS011;16639;51.488;0.152;2023-09-30T02:26:50;14.85;;;3.38;;
29730;SDS011;16639;51.488;0.152;2023-09-30T02:29:18;17.25;;;3.70;;
29730;SDS011;16639;51.488;0.152;2023-09-30T02:31:45;18.90;;;4.68;;
29730;SDS011;16639;51.488;0.152;2023-09-30T02:34:12;10.40;;;3.08;;
29730;SDS011;16639;51.488;0.152;2023-09-30T02:36:40;11.90;;;3.25;;
29730;SDS011;16639;51.488;0.152;2023-09-30T02:39:08;13.57;;;3.25;;
29730;SDS011;16639;51.488;0.152;2023-09-30T02:41:36;15.57;;;2.88;;
29730;SDS011;16639;51.488;0.152;2023-09-30T02:44:04;13.80;;;3.33;;
29730;SDS011;16639;51.488;0.152;2023-09-30T02:46:32;20.17;;;3.13;;
29730;SDS011;16639;51.488;0.152;2023-09-30T02:49:03;14.57;;;3.35;;
29730;SDS011;16639;51.488;0.152;2023-09-30T02:51:30;13.65;;;3.30;;
29730;SDS011;16639;51.488;0.152;2023-09-30T02:53:58;9.60;;;2.85;;
29730;SDS011;16639;51.488;0.152;2023-09-30T02:56:26;15.25;;;3.50;;
29730;SDS011;16639;51.488;0.152;2023-09-30T02:58:55;17.80;;;3.90;;
29730;SDS011;16639;51.488;0.152;2023-09-30T03:01:23;17.27;;;4.50;;
29730;SDS011;16639;51.488;0.152;2023-09-30T03:03:50;16.70;;;4.70;;
29730;SDS011;16639;51.488;0.152;2023-09-30T03:06:18;11.98;;;2.80;;
29730;SDS011;16639;51.488;0.152;2023-09-30T03:08:45;12.88;;;4.40;;
29730;SDS011;16639;51.488;0.152;2023-09-30T03:11:13;16.75;;;3.55;;
29730;SDS011;16639;51.488;0.152;2023-09-30T03:13:41;11.50;;;3.05;;
29730;SDS011;16639;51.488;0.152;2023-09-30T03:16:09;14.85;;;3.20;;
29730;SDS011;16639;51.488;0.152;2023-09-30T03:18:37;17.23;;;3.38;;
29730;SDS011;16639;51.488;0.152;2023-09-30T03:21:12;11.98;;;3.30;;
29730;SDS011;16639;51.488;0.152;2023-09-30T03:23:41;12.55;;;3.08;;
29730;SDS011;16639;51.488;0.152;2023-09-30T03:26:09;16.80;;;3.70;;
29730;SDS011;16639;51.488;0.152;2023-09-30T03:28:37;9.10;;;3.00;;
29730;SDS011;16639;51.488;0.152;2023-09-30T03:31:05;18.92;;;3.53;;
29730;SDS011;16639;51.488;0.152;2023-09-30T03:33:33;17.30;;;3.30;;
29730;SDS011;16639;51.488;0.152;2023-09-30T03:36:01;12.10;;;3.95;;
29730;SDS011;16639;51.488;0.152;2023-09-30T03:38:30;26.20;;;4.32;;
29730;SDS011;16639;51.488;0.152;2023-09-30T03:40:59;11.07;;;3.33;;
29730;SDS011;16639;51.488;0.152;2023-09-30T03:43:27;16.17;;;4.18;;
29730;SDS011;16639;51.488;0.152;2023-09-30T03:46:16;11.68;;;3.53;;
29730;SDS011;16639;51.488;0.152;2023-09-30T03:48:44;17.23;;;3.50;;
29730;SDS011;16639;51.488;0.152;2023-09-30T03:51:12;12.05;;;3.25;;
29730;SDS011;16639;51.488;0.152;2023-09-30T03:53:43;11.15;;;3.88;;
29730;SDS011;16639;51.488;0.152;2023-09-30T03:56:11;14.02;;;3.60;;
29730;SDS011;16639;51.488;0.152;2023-09-30T03:58:42;10.00;;;3.63;;
29730;SDS011;16639;51.488;0.152;2023-09-30T04:01:11;17.30;;;4.20;;
29730;SDS011;16639;51.488;0.152;2023-09-30T04:03:43;11.73;;;3.78;;
29730;SDS011;16639;51.488;0.152;2023-09-30T04:06:11;13.30;;;3.95;;
29730;SDS011;16639;51.488;0.152;2023-09-30T04:08:39;13.73;;;3.10;;
29730;SDS011;16639;51.488;0.152;2023-09-30T04:11:06;16.45;;;3.33;;
29730;SDS011;16639;51.488;0.152;2023-09-30T04:13:33;14.45;;;3.80;;
29730;SDS011;16639;51.488;0.152;2023-09-30T04:16:01;15.70;;;3.80;;
29730;SDS011;16639;51.488;0.152;2023-09-30T04:18:29;19.25;;;3.42;;
29730;SDS011;16639;51.488;0.152;2023-09-30T04:20:57;12.00;;;3.42;;
29730;SDS011;16639;51.488;0.152;2023-09-30T04:23:25;21.77;;;3.72;;
29730;SDS011;16639;51.488;0.152;2023-09-30T04:25:52;10.10;;;3.55;;
29730;SDS011;16639;51.488;0.152;2023-09-30T04:28:20;19.38;;;3.28;;
29730;SDS011;16639;51.488;0.152;2023-09-30T04:30:47;16.70;;;4.10;;
29730;SDS011;16639;51.488;0.152;2023-09-30T04:33:18;10.50;;;3.30;;
29730;SDS011;16639;51.488;0.152;2023-09-30T04:35:48;19.80;;;4.30;;
29730;SDS011;16639;51.488;0.152;2023-09-30T04:38:16;15.13;;;3.92;;
29730;SDS011;16639;51.488;0.152;2023-09-30T04:40:44;14.00;;;3.63;;
29730;SDS011;16639;51.488;0.152;2023-09-30T04:43:14;12.75;;;3.05;;
29730;SDS011;16639;51.488;0.152;2023-09-30T04:45:44;10.40;;;4.63;;
29730;SDS011;16639;51.488;0.152;2023-09-30T04:48:11;11.13;;;3.42;;
29730;SDS011;16639;51.488;0.152;2023-09-30T04:50:39;16.23;;;5.32;;
29730;SDS011;16639;51.488;0.152;2023-09-30T04:53:07;11.43;;;3.65;;
29730;SDS011;16639;51.488;0.152;2023-09-30T04:55:35;14.43;;;3.92;;
29730;SDS011;16639;51.488;0.152;2023-09-30T04:58:04;11.02;;;3.72;;
29730;SDS011;16639;51.488;0.152;2023-09-30T05:00:32;13.38;;;3.40;;
29730;SDS011;16639;51.488;0.152;2023-09-30T05:03:01;18.27;;;3.90;;
29730;SDS011;16639;51.488;0.152;2023-09-30T05:05:29;18.48;;;3.47;;
29730;SDS011;16639;51.488;0.152;2023-09-30T05:07:57;11.90;;;3.28;;
29730;SDS011;16639;51.488;0.152;2023-09-30T05:10:25;12.05;;;3.13;;
29730;SDS011;16639;51.488;0.152;2023-09-30T05:12:52;19.35;;;3.63;;
29730;SDS011;16639;51.488;0.152;2023-09-30T05:15:21;17.60;;;4.70;;
29730;SDS011;16639;51.488;0.152;2023-09-30T05:17:49;13.20;;;3.25;;
29730;SDS011;16639;51.488;0.152;2023-09-30T05:20:17;17.17;;;3.67;;
29730;SDS011;16639;51.488;0.152;2023-09-30T05:22:45;15.32;;;3.75;;
29730;SDS011;16639;51.488;0.152;2023-09-30T05:25:14;18.45;;;3.80;;
29730;SDS011;16639;51.488;0.152;2023-09-30T05:27:45;16.13;;;3.80;;
29730;SDS011;16639;51.488;0.152;2023-09-30T05:30:16;11.68;;;2.70;;
29730;SDS011;16639;51.488;0.152;2023-09-30T05:32:46;13.95;;;3.22;;
29730;SDS011;16639;51.488;0.152;2023-09-30T05:35:14;14.45;;;2.92;;
29730;SDS011;16639;51.488;0.152;2023-09-30T05:37:44;12.85;;;3.30;;
29730;SDS011;16639;51.488;0.152;2023-09-30T05:40:12;13.48;;;3.08;;
29730;SDS011;16639;51.488;0.152;2023-09-30T05:42:53;8.73;;;3.55;;
29730;SDS011;16639;51.488;0.152;2023-09-30T05:45:22;10.60;;;2.95;;
29730;SDS011;16639;51.488;0.152;2023-09-30T05:47:50;18.80;;;3.33;;
29730;SDS011;16639;51.488;0.152;2023-09-30T05:50:23;13.15;;;2.88;;
29730;SDS011;16639;51.488;0.152;2023-09-30T05:52:52;15.32;;;3.20;;
29730;SDS011;16639;51.488;0.152;2023-09-30T05:55:22;14.60;;;3.60;;
29730;SDS011;16639;51.488;0.152;2023-09-30T05:57:53;18.02;;;3.08;;
29730;SDS011;16639;51.488;0.152;2023-09-30T06:00:22;20.75;;;4.78;;
29730;SDS011;16639;51.488;0.152;2023-09-30T06:02:59;11.55;;;3.15;;
29730;SDS011;16639;51.488;0.152;2023-09-30T06:05:27;10.13;;;3.28;;
29730;SDS011;16639;51.488;0.152;2023-09-30T06:07:58;11.77;;;5.38;;
29730;SDS011;16639;51.488;0.152;2023-09-30T06:10:29;20.67;;;3.95;;
29730;SDS011;16639;51.488;0.152;2023-09-30T06:12:57;18.02;;;3.90;;
29730;SDS011;16639;51.488;0.152;2023-09-30T06:15:25;11.90;;;3.83;;
29730;SDS011;16639;51.488;0.152;2023-09-30T06:17:54;23.67;;;3.50;;
29730;SDS011;16639;51.488;0.152;2023-09-30T06:20:22;16.02;;;3.80;;
29730;SDS011;16639;51.488;0.152;2023-09-30T06:22:54;20.88;;;3.67;;
29730;SDS011;16639;51.488;0.152;2023-09-30T06:25:22;18.48;;;3.55;;
29730;SDS011;16639;51.488;0.152;2023-09-30T06:27:54;18.17;;;3.85;;
29730;SDS011;16639;51.488;0.152;2023-09-30T06:30:22;13.88;;;3.88;;
29730;SDS011;16639;51.488;0.152;2023-09-30T06:32:57;12.50;;;2.67;;
29730;SDS011;16639;51.488;0.152;2023-09-30T06:35:32;16.95;;;3.80;;
29730;SDS011;16639;51.488;0.152;2023-09-30T06:38:05;15.57;;;4.20;;
29730;SDS011;16639;51.488;0.152;2023-09-30T06:40:34;18.58;;;4.75;;
29730;SDS011;16639;51.488;0.152;2023-09-30T06:43:06;16.58;;;4.25;;
29730;SDS011;16639;51.488;0.152;2023-09-30T06:45:35;16.85;;;3.85;;
29730;SDS011;16639;51.488;0.152;2023-09-30T06:48:10;12.55;;;3.55;;
29730;SDS011;16639;51.488;0.152;2023-09-30T06:50:47;12.20;;;3.92;;
29730;SDS011;16639;51.488;0.152;2023-09-30T06:53:18;13.85;;;4.10;;
29730;SDS011;16639;51.488;0.152;2023-09-30T06:55:46;13.65;;;4.55;;
29730;SDS011;16639;51.488;0.152;2023-09-30T06:58:13;19.95;;;4.53;;
29730;SDS011;16639;51.488;0.152;2023-09-30T07:00:41;19.73;;;3.58;;
29730;SDS011;16639;51.488;0.152;2023-09-30T07:03:09;11.82;;;3.08;;
29730;SDS011;16639;51.488;0.152;2023-09-30T07:05:36;16.20;;;4.43;;
29730;SDS011;16639;51.488;0.152;2023-09-30T07:08:04;16.30;;;3.72;;
29730;SDS011;16639;51.488;0.152;2023-09-30T07:10:31;12.70;;;3.33;;
29730;SDS011;16639;51.488;0.152;2023-09-30T07:13:01;16.38;;;3.75;;
29730;SDS011;16639;51.488;0.152;2023-09-30T07:15:30;13.38;;;3.70;;
29730;SDS011;16639;51.488;0.152;2023-09-30T07:17:57;16.83;;;4.60;;
29730;SDS011;16639;51.488;0.152;2023-09-30T07:20:25;9.27;;;2.80;;
29730;SDS011;16639;51.488;0.152;2023-09-30T07:22:53;15.23;;;3.95;;
29730;SDS011;16639;51.488;0.152;2023-09-30T07:25:40;11.32;;;4.25;;
29730;SDS011;16639;51.488;0.152;2023-09-30T07:28:08;12.75;;;3.10;;
29730;SDS011;16639;51.488;0.152;2023-09-30T07:30:38;15.48;;;4.15;;
29730;SDS011;16639;51.488;0.152;2023-09-30T07:33:07;17.58;;;3.60;;
29730;SDS011;16639;51.488;0.152;2023-09-30T07:35:34;13.18;;;3.45;;
29730;SDS011;16639;51.488;0.152;2023-09-30T07:38:03;18.90;;;4.90;;
29730;SDS011;16639;51.488;0.152;2023-09-30T07:40:31;10.45;;;3.38;;
29730;SDS011;16639;51.488;0.152;2023-09-30T07:42:59;13.82;;;3.38;;
29730;SDS011;16639;51.488;0.152;2023-09-30T07:45:28;12.38;;;3.22;;
29730;SDS011;16639;51.488;0.152;2023-09-30T07:47:56;24.17;;;4.88;;
29730;SDS011;16639;51.488;0.152;2023-09-30T07:50:25;20.13;;;4.60;;
29730;SDS011;16639;51.488;0.152;2023-09-30T07:52:53;17.02;;;3.40;;
29730;SDS011;16639;51.488;0.152;2023-09-30T07:55:21;14.18;;;3.33;;
29730;SDS011;16639;51.488;0.152;2023-09-30T07:57:48;18.33;;;5.03;;
29730;SDS011;16639;51.488;0.152;2023-09-30T08:00:16;14.13;;;4.22;;
29730;SDS011;16639;51.488;0.152;2023-09-30T08:02:44;12.65;;;4.07;;
29730;SDS011;16639;51.488;0.152;2023-09-30T08:05:12;19.88;;;3.95;;
29730;SDS011;16639;51.488;0.152;2023-09-30T08:07:40;14.80;;;4.57;;
29730;SDS011;16639;51.488;0.152;2023-09-30T08:10:08;20.55;;;4.32;;
29730;SDS011;16639;51.488;0.152;2023-09-30T08:12:41;13.63;;;3.38;;
29730;SDS011;16639;51.488;0.152;2023-09-30T08:15:09;18.13;;;3.63;;
29730;SDS011;16639;51.488;0.152;2023-09-30T08:17:41;12.15;;;2.88;;
29730;SDS011;16639;51.488;0.152;2023-09-30T08:20:09;23.27;;;3.92;;
29730;SDS011;16639;51.488;0.152;2023-09-30T08:22:36;17.42;;;3.30;;
29730;SDS011;16639;51.488;0.152;2023-09-30T08:25:05;21.00;;;4.20;;
29730;SDS011;16639;51.488;0.152;2023-09-30T08:27:33;13.13;;;3.30;;
29730;SDS011;16639;51.488;0.152;2023-09-30T08:30:01;19.77;;;3.85;;
29730;SDS011;16639;51.488;0.152;2023-09-30T08:32:33;17.40;;;4.97;;
29730;SDS011;16639;51.488;0.152;2023-09-30T08:35:02;14.52;;;3.88;;
29730;SDS011;16639;51.488;0.152;2023-09-30T08:37:30;13.73;;;4.03;;
29730;SDS011;16639;51.488;0.152;2023-09-30T08:39:58;17.85;;;3.40;;
29730;SDS011;16639;51.488;0.152;2023-09-30T08:42:26;9.18;;;2.97;;
29730;SDS011;16639;51.488;0.152;2023-09-30T08:45:00;10.10;;;2.85;;
29730;SDS011;16639;51.488;0.152;2023-09-30T08:47:28;9.32;;;3.08;;
29730;SDS011;16639;51.488;0.152;2023-09-30T08:49:59;15.57;;;3.45;;
29730;SDS011;16639;51.488;0.152;2023-09-30T08:52:33;10.70;;;3.10;;
29730;SDS011;16639;51.488;0.152;2023-09-30T08:55:07;13.30;;;3.35;;
29730;SDS011;16639;51.488;0.152;2023-09-30T08:57:36;15.35;;;3.88;;
29730;SDS011;16639;51.488;0.152;2023-09-30T09:00:09;7.85;;;3.30;;
29730;SDS011;16639;51.488;0.152;2023-09-30T09:02:41;12.77;;;2.97;;
29730;SDS011;16639;51.488;0.152;2023-09-30T09:05:09;10.57;;;3.95;;
29730;SDS011;16639;51.488;0.152;2023-09-30T09:07:38;12.75;;;3.35;;
29730;SDS011;16639;51.488;0.152;2023-09-30T09:10:07;12.68;;;2.83;;
29730;SDS011;16639;51.488;0.152;2023-09-30T09:12:41;15.10;;;4.38;;
29730;SDS011;16639;51.488;0.152;2023-09-30T09:15:20;12.77;;;2.90;;
29730;SDS011;16639;51.488;0.152;2023-09-30T09:17:50;10.98;;;2.78;;
29730;SDS011;16639;51.488;0.152;2023-09-30T09:20:19;13.30;;;2.65;;
29730;SDS011;16639;51.488;0.152;2023-09-30T09:22:49;18.15;;;3.83;;
29730;SDS011;16639;51.488;0.152;2023-09-30T09:25:21;13.45;;;2.75;;
29730;SDS011;16639;51.488;0.152;2023-09-30T09:27:52;16.77;;;3.33;;
29730;SDS011;16639;51.488;0.152;2023-09-30T09:30:25;13.48;;;2.78;;
29730;SDS011;16639;51.488;0.152;2023-09-30T09:33:03;9.75;;;3.22;;
29730;SDS011;16639;51.488;0.152;2023-09-30T09:35:32;20.30;;;4.38;;
29730;SDS011;16639;51.488;0.152;2023-09-30T09:38:02;11.45;;;3.10;;
29730;SDS011;16639;51.488;0.152;2023-09-30T09:40:32;10.35;;;3.25;;
29730;SDS011;16639;51.488;0.152;2023-09-30T09:43:05;4.85;;;2.33;;
29730;SDS011;16639;51.488;0.152;2023-09-30T09:45:35;11.48;;;2.78;;
29730;SDS011;16639;51.488;0.152;2023-09-30T09:48:05;12.77;;;3.47;;
29730;SDS011;16639;51.488;0.152;2023-09-30T09:50:34;13.50;;;3.08;;
29730;SDS011;16639;51.488;0.152;2023-09-30T09:53:05;12.38;;;3.08;;
29730;SDS011;16639;51.488;0.152;2023-09-30T09:55:34;7.45;;;2.50;;
29730;SDS011;16639;51.488;0.152;2023-09-30T09:58:05;17.17;;;2.95;;
29730;SDS011;16639;51.488;0.152;2023-09-30T10:00:37;10.80;;;2.70;;
29730;SDS011;16639;51.488;0.152;2023-09-30T10:03:05;7.70;;;2.78;;
29730;SDS011;16639;51.488;0.152;2023-09-30T10:05:33;7.10;;;2.58;;
29730;SDS011;16639;51.488;0.152;2023-09-30T10:08:05;9.25;;;3.20;;
29730;SDS011;16639;51.488;0.152;2023-09-30T10:10:35;6.00;;;2.35;;
29730;SDS011;16639;51.488;0.152;2023-09-30T10:13:06;8.85;;;2.53;;
29730;SDS011;16639;51.488;0.152;2023-09-30T10:15:34;5.32;;;1.95;;
29730;SDS011;16639;51.488;0.152;2023-09-30T10:18:05;7.25;;;1.95;;
29730;SDS011;16639;51.488;0.152;2023-09-30T10:20:41;9.38;;;2.83;;
29730;SDS011;16639;51.488;0.152;2023-09-30T10:23:22;9.27;;;2.30;;
29730;SDS011;16639;51.488;0.152;2023-09-30T10:26:12;6.95;;;2.35;;
29730;SDS011;16639;51.488;0.152;2023-09-30T10:28:43;14.45;;;2.83;;
29730;SDS011;16639;51.488;0.152;2023-09-30T10:31:20;10.30;;;2.38;;
29730;SDS011;16639;51.488;0.152;2023-09-30T10:36:29;7.03;;;2.58;;
29730;SDS011;16639;51.488;0.152;2023-09-30T10:39:01;12.70;;;3.22;;
29730;SDS011;16639;51.488;0.152;2023-09-30T10:42:27;5.63;;;1.85;;
29730;SDS011;16639;51.488;0.152;2023-09-30T10:44:38;5.45;;;3.00;;
29730;SDS011;16639;51.488;0.152;2023-09-30T10:49:48;5.63;;;2.38;;
29730;SDS011;16639;51.488;0.152;2023-09-30T10:52:22;8.50;;;2.42;;
29730;SDS011;16639;51.488;0.152;2023-09-30T10:54:50;5.57;;;1.60;;
29730;SDS011;16639;51.488;0.152;2023-09-30T10:57:27;4.68;;;1.52;;
29730;SDS011;16639;51.488;0.152;2023-09-30T11:00:08;5.00;;;2.08;;
29730;SDS011;16639;51.488;0.152;2023-09-30T11:02:48;5.70;;;1.80;;
29730;SDS011;16639;51.488;0.152;2023-09-30T11:05:17;4.95;;;1.45;;
29730;SDS011;16639;51.488;0.152;2023-09-30T11:08:02;7.32;;;2.30;;
29730;SDS011;16639;51.488;0.152;2023-09-30T11:10:30;3.35;;;1.60;;
29730;SDS011;16639;51.488;0.152;2023-09-30T11:12:58;13.32;;;2.58;;
29730;SDS011;16639;51.488;0.152;2023-09-30T11:15:26;3.45;;;1.27;;
29730;SDS011;16639;51.488;0.152;2023-09-30T11:18:12;9.85;;;2.28;;
29730;SDS011;16639;51.488;0.152;2023-09-30T11:20:43;2.55;;;1.75;;
29730;SDS011;16639;51.488;0.152;2023-09-30T11:23:11;6.32;;;1.45;;
29730;SDS011;16639;51.488;0.152;2023-09-30T11:25:39;7.65;;;2.03;;
29730;SDS011;16639;51.488;0.152;2023-09-30T11:30:52;7.93;;;1.50;;
29730;SDS011;16639;51.488;0.152;2023-09-30T11:33:24;6.63;;;2.28;;
29730;SDS011;16639;51.488;0.152;2023-09-30T11:35:55;3.88;;;1.40;;
29730;SDS011;16639;51.488;0.152;2023-09-30T11:38:28;4.95;;;2.22;;
29730;SDS011;16639;51.488;0.152;2023-09-30T11:41:02;4.63;;;1.73;;
29730;SDS011;16639;51.488;0.152;2023-09-30T11:43:35;6.40;;;1.73;;
29730;SDS011;16639;51.488;0.152;2023-09-30T11:48:36;5.47;;;1.95;;
29730;SDS011;16639;51.488;0.152;2023-09-30T11:51:04;8.82;;;1.75;;
29730;SDS011;16639;51.488;0.152;2023-09-30T11:53:32;5.88;;;1.52;;
29730;SDS011;16639;51.488;0.152;2023-09-30T11:56:05;6.95;;;1.30;;
29730;SDS011;16639;51.488;0.152;2023-09-30T11:58:37;7.05;;;1.70;;
29730;SDS011;16639;51.488;0.152;2023-09-30T12:01:06;7.47;;;1.80;;
29730;SDS011;16639;51.488;0.152;2023-09-30T12:03:33;5.45;;;1.58;;
29730;SDS011;16639;51.488;0.152;2023-09-30T12:06:07;7.40;;;1.63;;
29730;SDS011;16639;51.488;0.152;2023-09-30T12:08:35;6.78;;;1.55;;
29730;SDS011;16639;51.488;0.152;2023-09-30T12:11:04;5.70;;;1.88;;
29730;SDS011;16639;51.488;0.152;2023-09-30T12:13:32;5.95;;;2.10;;
29730;SDS011;16639;51.488;0.152;2023-09-30T12:16:00;4.78;;;1.70;;
29730;SDS011;16639;51.488;0.152;2023-09-30T12:18:27;9.80;;;1.45;;
29730;SDS011;16639;51.488;0.152;2023-09-30T12:20:55;4.15;;;1.52;;
29730;SDS011;16639;51.488;0.152;2023-09-30T12:23:23;4.55;;;1.50;;
29730;SDS011;16639;51.488;0.152;2023-09-30T12:25:51;5.32;;;1.98;;
29730;SDS011;16639;51.488;0.152;2023-09-30T12:28:39;6.57;;;1.83;;
29730;SDS011;16639;51.488;0.152;2023-09-30T12:31:07;3.95;;;1.75;;
29730;SDS011;16639;51.488;0.152;2023-09-30T12:33:35;6.97;;;2.03;;
29730;SDS011;16639;51.488;0.152;2023-09-30T12:36:03;7.15;;;2.10;;
29730;SDS011;16639;51.488;0.152;2023-09-30T12:38:31;7.45;;;1.95;;
29730;SDS011;16639;51.488;0.152;2023-09-30T12:40:58;8.30;;;1.83;;
29730;SDS011;16639;51.488;0.152;2023-09-30T12:43:27;8.30;;;1.75;;
29730;SDS011;16639;51.488;0.152;2023-09-30T12:45:54;7.60;;;1.60;;
29730;SDS011;16639;51.488;0.152;2023-09-30T12:48:22;4.95;;;1.95;;
29730;SDS011;16639;51.488;0.152;2023-09-30T12:50:49;14.55;;;2.88;;
29730;SDS011;16639;51.488;0.152;2023-09-30T12:53:17;7.65;;;1.70;;
29730;SDS011;16639;51.488;0.152;2023-09-30T12:55:45;10.98;;;1.98;;
29730;SDS011;16639;51.488;0.152;2023-09-30T12:58:12;4.60;;;1.80;;
29730;SDS011;16639;51.488;0.152;2023-09-30T13:00:40;6.78;;;1.85;;
29730;SDS011;16639;51.488;0.152;2023-09-30T13:03:07;11.98;;;2.53;;
29730;SDS011;16639;51.488;0.152;2023-09-30T13:05:35;7.82;;;1.75;;
29730;SDS011;16639;51.488;0.152;2023-09-30T13:08:02;7.90;;;2.30;;
29730;SDS011;16639;51.488;0.152;2023-09-30T13:10:30;6.60;;;2.28;;
29730;SDS011;16639;51.488;0.152;2023-09-30T13:12:57;8.15;;;2.10;;
29730;SDS011;16639;51.488;0.152;2023-09-30T13:15:25;6.63;;;2.25;;
29730;SDS011;16639;51.488;0.152;2023-09-30T13:17:53;7.45;;;2.38;;
29730;SDS011;16639;51.488;0.152;2023-09-30T13:20:20;10.05;;;1.95;;
29730;SDS011;16639;51.488;0.152;2023-09-30T13:22:48;5.35;;;2.17;;
29730;SDS011;16639;51.488;0.152;2023-09-30T13:25:24;10.50;;;2.28;;
29730;SDS011;16639;51.488;0.152;2023-09-30T13:28:27;8.85;;;2.58;;
29730;SDS011;16639;51.488;0.152;2023-09-30T13:30:55;7.75;;;2.47;;
29730;SDS011;16639;51.488;0.152;2023-09-30T13:33:23;6.70;;;2.20;;
29730;SDS011;16639;51.488;0.152;2023-09-30T13:35:51;9.60;;;2.80;;
29730;SDS011;16639;51.488;0.152;2023-09-30T13:38:19;6.32;;;2.10;;
29730;SDS011;16639;51.488;0.152;2023-09-30T13:40:46;5.32;;;2.35;;
29730;SDS011;16639;51.488;0.152;2023-09-30T13:43:13;7.10;;;2.63;;
29730;SDS011;16639;51.488;0.152;2023-09-30T13:45:41;7.47;;;2.55;;
29730;SDS011;16639;51.488;0.152;2023-09-30T13:48:08;10.85;;;2.47;;
29730;SDS011;16639;51.488;0.152;2023-09-30T13:50:36;7.53;;;2.00;;
29730;SDS011;16639;51.488;0.152;2023-09-30T13:53:03;7.75;;;2.50;;
29730;SDS011;16639;51.488;0.152;2023-09-30T13:55:32;9.65;;;2.28;;
29730;SDS011;16639;51.488;0.152;2023-09-30T13:57:59;8.80;;;2.35;;
29730;SDS011;16639;51.488;0.152;2023-09-30T14:00:27;9.40;;;2.15;;
29730;SDS011;16639;51.488;0.152;2023-09-30T14:02:54;10.60;;;2.25;;
29730;SDS011;16639;51.488;0.152;2023-09-30T14:05:22;11.13;;;2.70;;
29730;SDS011;16639;51.488;0.152;2023-09-30T14:07:50;11.48;;;3.00;;
29730;SDS011;16639;51.488;0.152;2023-09-30T14:10:18;7.45;;;2.60;;
29730;SDS011;16639;51.488;0.152;2023-09-30T14:12:45;13.40;;;4.30;;
29730;SDS011;16639;51.488;0.152;2023-09-30T14:15:13;7.30;;;3.20;;
29730;SDS011;16639;51.488;0.152;2023-09-30T14:17:42;15.57;;;2.92;;
29730;SDS011;16639;51.488;0.152;2023-09-30T14:20:12;13.40;;;2.30;;
29730;SDS011;16639;51.488;0.152;2023-09-30T14:22:39;9.85;;;2.38;;
29730;SDS011;16639;51.488;0.152;2023-09-30T14:25:08;10.90;;;2.75;;
29730;SDS011;16639;51.488;0.152;2023-09-30T14:27:40;11.57;;;2.60;;
29730;SDS011;16639;51.488;0.152;2023-09-30T14:30:10;12.63;;;2.58;;
29730;SDS011;16639;51.488;0.152;2023-09-30T14:32:39;7.05;;;2.20;;
29730;SDS011;16639;51.488;0.152;2023-09-30T14:35:07;5.50;;;2.10;;
29730;SDS011;16639;51.488;0.152;2023-09-30T14:37:36;8.93;;;2.50;;
29730;SDS011;16639;51.488;0.152;2023-09-30T14:40:04;14.70;;;2.80;;
29730;SDS011;16639;51.488;0.152;2023-09-30T14:42:32;3.85;;;2.00;;
29730;SDS011;16639;51.488;0.152;2023-09-30T14:45:00;7.18;;;2.80;;
29730;SDS011;16639;51.488;0.152;2023-09-30T14:47:27;12.90;;;2.78;;
29730;SDS011;16639;51.488;0.152;2023-09-30T14:49:55;9.60;;;1.95;;
29730;SDS011;16639;51.488;0.152;2023-09-30T14:52:23;7.43;;;2.25;;
29730;SDS011;16639;51.488;0.152;2023-09-30T14:54:50;10.13;;;3.33;;
29730;SDS011;16639;51.488;0.152;2023-09-30T14:57:20;7.20;;;2.40;;
29730;SDS011;16639;51.488;0.152;2023-09-30T15:00:19;7.80;;;2.30;;
29730;SDS011;16639;51.488;0.152;2023-09-30T15:02:49;7.43;;;1.90;;
29730;SDS011;16639;51.488;0.152;2023-09-30T15:05:17;10.10;;;2.60;;
29730;SDS011;16639;51.488;0.152;2023-09-30T15:07:45;8.80;;;2.50;;